createdAt,value
2022-09-12T00:01:06.435Z,12.40
2022-09-12T00:03:34.428Z,12.65
2022-09-12T00:06:02.384Z,13.15
2022-09-12T00:08:30.403Z,12.94
2022-09-12T00:10:58.439Z,12.95
2022-09-12T00:13:26.434Z,12.75
2022-09-12T00:15:54.450Z,12.63
2022-09-12T00:18:23.810Z,13.11
2022-09-12T00:20:51.743Z,13.36
2022-09-12T00:23:19.963Z,13.51
2022-09-12T00:25:49.604Z,13.64
2022-09-12T00:28:19.193Z,13.64
2022-09-12T00:30:50.888Z,13.61
2022-09-12T00:33:19.481Z,13.60
2022-09-12T00:35:51.381Z,13.47
2022-09-12T00:38:19.675Z,13.30
2022-09-12T00:40:47.792Z,13.17
2022-09-12T00:43:33.582Z,13.22
2022-09-12T00:46:04.497Z,13.29
2022-09-12T00:48:35.315Z,13.26
2022-09-12T00:51:04.798Z,13.12
2022-09-12T00:53:32.860Z,12.96
2022-09-12T00:56:01.045Z,12.46
2022-09-12T00:58:33.174Z,12.04
2022-09-12T01:01:01.346Z,12.24
2022-09-12T01:03:29.686Z,12.41
2022-09-12T01:06:03.095Z,12.66
2022-09-12T01:08:34.008Z,12.80
2022-09-12T01:11:02.003Z,12.69
2022-09-12T01:13:30.300Z,12.82
2022-09-12T01:15:58.489Z,13.07
2022-09-12T01:18:31.819Z,13.08
2022-09-12T01:21:06.990Z,13.04
2022-09-12T01:24:04.511Z,13.32
2022-09-12T01:27:09.594Z,13.36
2022-09-12T01:30:01.481Z,13.26
2022-09-12T01:32:37.733Z,13.33
2022-09-12T01:35:10.972Z,13.14
2022-09-12T01:37:42.640Z,12.91
2022-09-12T01:40:16.679Z,12.64
2022-09-12T01:42:48.381Z,12.44
2022-09-12T01:45:19.944Z,12.69
2022-09-12T01:47:51.796Z,12.77
2022-09-12T01:50:21.714Z,12.69
2022-09-12T01:52:52.421Z,12.93
2022-09-12T01:55:23.851Z,12.94
2022-09-12T01:57:56.119Z,12.60
2022-09-12T02:00:24.338Z,12.90
2022-09-12T02:02:58.012Z,12.84
2022-09-12T02:05:30.808Z,12.58
2022-09-12T02:08:03.956Z,12.48
2022-09-12T02:10:33.485Z,12.63
2022-09-12T02:13:05.043Z,12.85
2022-09-12T02:15:38.165Z,12.72
2022-09-12T02:18:08.015Z,12.35
2022-09-12T02:20:47.927Z,12.07
2022-09-12T02:23:20.615Z,11.64
2022-09-12T02:25:51.161Z,11.99
2022-09-12T02:28:23.263Z,11.85
2022-09-12T02:30:57.928Z,11.40
2022-09-12T02:33:29.187Z,11.79
2022-09-12T02:36:00.289Z,11.67
2022-09-12T02:38:32.148Z,11.95
2022-09-12T02:41:00.294Z,11.84
2022-09-12T02:43:28.360Z,11.59
2022-09-12T02:45:56.477Z,11.87
2022-09-12T02:48:28.451Z,11.29
2022-09-12T02:50:56.521Z,11.41
2022-09-12T02:53:25.123Z,11.47
2022-09-12T02:55:53.290Z,11.28
2022-09-12T02:58:25.451Z,10.98
2022-09-12T03:00:58.091Z,10.81
2022-09-12T03:03:47.488Z,10.89
2022-09-12T03:06:19.834Z,10.90
2022-09-12T03:09:02.382Z,11.05
2022-09-12T03:11:51.635Z,10.94
2022-09-12T03:14:28.330Z,11.25
2022-09-12T03:17:00.875Z,11.71
2022-09-12T03:19:35.270Z,11.68
2022-09-12T03:22:09.171Z,11.52
2022-09-12T03:24:40.929Z,11.66
2022-09-12T03:27:14.019Z,11.94
2022-09-12T03:29:42.902Z,11.90
2022-09-12T03:32:10.925Z,11.61
2022-09-12T03:34:40.305Z,11.83
2022-09-12T03:37:08.584Z,11.55
2022-09-12T03:39:36.625Z,11.70
2022-09-12T03:42:04.819Z,12.08
2022-09-12T03:44:32.908Z,12.14
2022-09-12T03:47:00.883Z,11.88
2022-09-12T03:49:28.900Z,11.88
2022-09-12T03:51:58.316Z,12.13
2022-09-12T03:54:26.380Z,12.04
2022-09-12T03:56:54.376Z,12.05
2022-09-12T03:59:22.415Z,11.93
2022-09-12T04:01:50.402Z,11.94
2022-09-12T04:04:18.424Z,11.75
2022-09-12T04:06:46.405Z,11.52
2022-09-12T04:09:15.831Z,11.04
2022-09-12T04:11:43.837Z,11.41
2022-09-12T04:14:11.910Z,11.79
2022-09-12T04:16:39.987Z,11.94
2022-09-12T04:19:08.025Z,11.78
2022-09-12T04:21:36.270Z,11.44
2022-09-12T04:24:04.577Z,11.67
2022-09-12T04:26:33.957Z,11.99
2022-09-12T04:29:02.002Z,12.03
2022-09-12T04:31:30.006Z,12.00
2022-09-12T04:33:59.264Z,11.61
2022-09-12T04:36:28.448Z,11.63
2022-09-12T04:38:56.737Z,11.50
2022-09-12T04:41:26.515Z,11.17
2022-09-12T04:43:58.418Z,10.67
2022-09-12T04:46:27.264Z,10.47
2022-09-12T04:48:57.040Z,10.81
2022-09-12T04:51:28.020Z,10.82
2022-09-12T04:53:57.721Z,11.11
2022-09-12T04:56:27.042Z,11.23
2022-09-12T04:58:58.167Z,11.11
2022-09-12T05:01:27.028Z,11.18
2022-09-12T05:03:55.859Z,11.04
2022-09-12T05:06:25.293Z,11.30
2022-09-12T05:08:54.351Z,11.23
2022-09-12T05:11:25.572Z,11.03
2022-09-12T05:13:56.534Z,11.01
2022-09-12T05:16:25.902Z,10.79
2022-09-12T05:18:54.038Z,10.88
2022-09-12T05:21:24.479Z,10.72
2022-09-12T05:23:52.814Z,10.78
2022-09-12T05:26:21.662Z,11.05
2022-09-12T05:28:50.690Z,11.04
2022-09-12T05:31:22.110Z,10.92
2022-09-12T05:33:51.487Z,10.62
2022-09-12T05:36:21.494Z,10.46
2022-09-12T05:38:49.478Z,10.49
2022-09-12T05:41:22.987Z,10.74
2022-09-12T05:43:54.300Z,10.96
2022-09-12T05:46:25.299Z,11.18
2022-09-12T05:48:56.287Z,11.29
2022-09-12T05:51:26.913Z,11.34
2022-09-12T05:53:57.289Z,11.58
2022-09-12T05:56:26.169Z,11.47
2022-09-12T05:58:56.077Z,11.21
2022-09-12T06:01:26.222Z,11.09
2022-09-12T06:03:55.695Z,11.07
2022-09-12T06:06:26.333Z,11.14
2022-09-12T06:08:57.306Z,11.28
2022-09-12T06:11:26.888Z,11.62
2022-09-12T06:13:54.953Z,11.98
2022-09-12T06:16:26.115Z,12.12
2022-09-12T06:18:55.048Z,12.38
2022-09-12T06:21:24.089Z,12.40
2022-09-12T06:23:52.131Z,12.52
2022-09-12T06:26:21.742Z,12.62
2022-09-12T06:28:49.980Z,12.62
2022-09-12T06:31:19.595Z,12.75
2022-09-12T06:33:51.877Z,12.88
2022-09-12T06:36:22.441Z,12.91
2022-09-12T06:38:56.384Z,13.10
2022-09-12T06:41:24.627Z,13.17
2022-09-12T06:43:52.798Z,13.25
2022-09-12T06:46:21.131Z,13.25
2022-09-12T06:48:50.566Z,13.33
2022-09-12T06:51:21.090Z,13.32
2022-09-12T06:53:50.088Z,13.51
2022-09-12T06:56:19.264Z,13.61
2022-09-12T06:58:48.339Z,13.80
2022-09-12T07:01:18.161Z,13.82
2022-09-12T07:03:52.060Z,13.91
2022-09-12T07:06:21.670Z,14.04
2022-09-12T07:08:49.736Z,14.24
2022-09-12T07:11:20.111Z,14.17
2022-09-12T07:13:50.666Z,14.45
2022-09-12T07:16:20.076Z,14.50
2022-09-12T07:18:54.401Z,14.67
2022-09-12T07:21:25.221Z,14.83
2022-09-12T07:23:55.358Z,14.96
2022-09-12T07:26:23.693Z,15.08
2022-09-12T07:28:53.494Z,15.04
2022-09-12T07:31:22.784Z,15.26
2022-09-12T07:33:54.814Z,15.47
2022-09-12T07:36:24.704Z,15.50
2022-09-12T07:38:57.621Z,15.57
2022-09-12T07:41:27.142Z,15.71
2022-09-12T07:43:55.966Z,15.85
2022-09-12T07:46:25.042Z,15.91
2022-09-12T07:48:55.548Z,16.07
2022-09-12T07:51:27.537Z,16.11
2022-09-12T07:53:56.410Z,16.33
2022-09-12T07:56:29.316Z,16.41
2022-09-12T07:58:59.046Z,16.67
2022-09-12T08:01:27.261Z,16.80
2022-09-12T08:03:58.075Z,16.77
2022-09-12T08:06:27.024Z,16.81
2022-09-12T08:08:57.741Z,16.87
2022-09-12T08:11:29.740Z,16.93
2022-09-12T08:13:58.544Z,17.09
2022-09-12T08:16:29.768Z,17.18
2022-09-12T08:18:59.473Z,17.34
2022-09-12T08:21:29.105Z,17.51
2022-09-12T08:23:58.558Z,17.67
2022-09-12T08:26:28.580Z,17.59
2022-09-12T08:28:56.735Z,17.84
2022-09-12T08:31:26.239Z,17.95
2022-09-12T08:33:58.244Z,18.06
2022-09-12T08:36:28.298Z,18.24
2022-09-12T08:39:00.019Z,18.45
2022-09-12T08:41:31.229Z,18.59
2022-09-12T08:44:10.086Z,18.61
2022-09-12T08:46:42.810Z,18.36
2022-09-12T08:49:20.668Z,18.57
2022-09-12T08:51:49.408Z,18.57
2022-09-12T08:54:21.702Z,18.70
2022-09-12T08:56:52.932Z,18.65
2022-09-12T08:59:21.105Z,18.70
2022-09-12T09:01:53.677Z,18.88
2022-09-12T09:04:39.176Z,18.87
2022-09-12T09:07:31.169Z,18.98
2022-09-12T09:10:11.222Z,18.85
2022-09-12T09:12:47.983Z,19.22
2022-09-12T09:15:27.090Z,19.28
2022-09-12T09:18:00.406Z,19.22
2022-09-12T09:20:33.758Z,19.14
2022-09-12T09:23:06.358Z,19.35
2022-09-12T09:25:43.078Z,19.40
2022-09-12T09:28:15.666Z,19.40
2022-09-12T09:30:44.842Z,19.56
2022-09-12T09:33:22.001Z,19.40
2022-09-12T09:35:57.878Z,19.36
2022-09-12T09:38:31.362Z,19.33
2022-09-12T09:41:30.189Z,19.55
2022-09-12T09:43:58.719Z,19.43
2022-09-12T09:46:27.704Z,19.24
2022-09-12T09:48:57.442Z,19.38
2022-09-12T09:51:30.055Z,19.61
2022-09-12T09:54:00.961Z,19.75
2022-09-12T09:56:30.747Z,19.87
2022-09-12T09:58:59.011Z,19.75
2022-09-12T10:01:28.322Z,19.62
2022-09-12T10:03:57.052Z,19.87
2022-09-12T10:06:34.011Z,20.05
2022-09-12T10:09:19.533Z,20.09
2022-09-12T10:11:48.347Z,20.00
2022-09-12T10:14:43.469Z,20.17
2022-09-12T10:17:25.940Z,20.36
2022-09-12T10:20:17.498Z,20.27
2022-09-12T10:22:48.517Z,20.36
2022-09-12T10:25:18.256Z,20.48
2022-09-12T10:27:54.287Z,20.39
2022-09-12T10:30:24.989Z,20.64
2022-09-12T10:32:55.585Z,20.47
2022-09-12T10:35:25.688Z,20.49
2022-09-12T10:37:57.010Z,20.72
2022-09-12T10:40:32.807Z,20.72
2022-09-12T10:43:05.457Z,20.44
2022-09-12T10:45:37.517Z,20.31
2022-09-12T10:48:25.485Z,20.71
2022-09-12T10:50:53.422Z,20.89
2022-09-12T10:53:24.226Z,21.07
2022-09-12T10:56:03.154Z,21.23
2022-09-12T10:58:57.878Z,21.13
2022-09-12T11:01:36.933Z,20.73
2022-09-12T11:04:39.801Z,20.81
2022-09-12T11:07:34.600Z,20.95
2022-09-12T11:10:13.794Z,21.09
2022-09-12T11:12:45.587Z,21.21
2022-09-12T11:15:29.386Z,21.10
2022-09-12T11:18:05.407Z,21.11
2022-09-12T11:20:46.667Z,21.16
2022-09-12T11:23:59.431Z,21.26
2022-09-12T11:26:41.581Z,21.30
2022-09-12T11:29:14.538Z,20.88
2022-09-12T11:32:06.199Z,21.08
2022-09-12T11:34:42.782Z,20.93
2022-09-12T11:37:24.887Z,21.17
2022-09-12T11:39:55.848Z,21.30
2022-09-12T11:42:31.013Z,20.85
2022-09-12T11:45:04.214Z,21.03
2022-09-12T11:47:34.706Z,20.80
2022-09-12T11:50:05.697Z,20.95
2022-09-12T11:52:38.495Z,21.01
2022-09-12T11:55:11.718Z,20.91
2022-09-12T11:57:45.835Z,20.72
2022-09-12T12:00:20.817Z,20.86
2022-09-12T12:02:55.563Z,20.98
2022-09-12T12:05:26.031Z,20.84
2022-09-12T12:07:55.765Z,20.77
2022-09-12T12:10:27.160Z,21.08
2022-09-12T12:12:59.183Z,21.14
2022-09-12T12:15:28.457Z,21.03
2022-09-12T12:18:08.499Z,21.03
2022-09-12T12:20:37.474Z,21.03
2022-09-12T12:23:05.855Z,21.22
2022-09-12T12:25:43.134Z,21.34
2022-09-12T12:28:59.117Z,21.86
2022-09-12T12:31:27.227Z,22.03
2022-09-12T12:34:04.111Z,21.77
2022-09-12T12:36:38.597Z,21.72
2022-09-12T12:39:51.381Z,21.70
2022-09-12T12:43:03.033Z,21.92
2022-09-12T12:46:12.630Z,21.97
2022-09-12T12:49:00.116Z,22.14
2022-09-12T12:51:41.735Z,22.17
2022-09-12T12:54:54.045Z,21.83
2022-09-12T12:57:37.010Z,21.65
2022-09-12T13:00:09.248Z,21.24
2022-09-12T13:02:42.071Z,21.63
2022-09-12T13:05:19.455Z,21.96
2022-09-12T13:07:50.187Z,21.61
2022-09-12T13:10:24.621Z,21.70
2022-09-12T13:12:53.257Z,21.88
2022-09-12T13:15:49.672Z,22.06
2022-09-12T13:18:24.305Z,22.58
2022-09-12T13:20:56.941Z,22.23
2022-09-12T13:23:26.836Z,22.07
2022-09-12T13:25:55.787Z,22.32
2022-09-12T13:28:24.091Z,21.71
2022-09-12T13:30:59.441Z,21.87
2022-09-12T13:33:36.251Z,22.03
2022-09-12T13:36:27.046Z,21.77
2022-09-12T13:39:09.553Z,22.02
2022-09-12T13:42:01.222Z,22.71
2022-09-12T13:44:33.034Z,22.34
2022-09-12T13:47:02.035Z,22.41
2022-09-12T13:49:35.291Z,22.91
2022-09-12T13:52:06.259Z,23.08
2022-09-12T13:54:41.075Z,22.08
2022-09-12T13:57:19.350Z,22.38
2022-09-12T13:59:47.379Z,22.59
2022-09-12T14:02:20.253Z,22.87
2022-09-12T14:05:09.283Z,23.76
2022-09-12T14:07:53.380Z,23.66
2022-09-12T14:10:25.313Z,23.79
2022-09-12T14:12:53.506Z,24.47
2022-09-12T14:15:24.666Z,23.45
2022-09-12T14:17:55.003Z,22.79
2022-09-12T14:20:26.436Z,23.70
2022-09-12T14:22:54.721Z,23.25
2022-09-12T14:25:25.362Z,23.11
2022-09-12T14:27:55.266Z,22.98
2022-09-12T14:30:26.364Z,23.45
2022-09-12T14:33:17.533Z,24.27
2022-09-12T14:35:49.058Z,23.49
2022-09-12T14:38:26.342Z,23.34
2022-09-12T14:41:00.866Z,24.06
2022-09-12T14:43:30.532Z,23.99
2022-09-12T14:46:00.809Z,24.25
2022-09-12T14:48:30.375Z,24.21
2022-09-12T14:51:01.370Z,24.02
2022-09-12T14:53:33.846Z,23.50
2022-09-12T14:56:09.016Z,23.30
2022-09-12T14:58:41.597Z,23.16
2022-09-12T15:01:31.297Z,22.64
2022-09-12T15:03:59.600Z,23.02
2022-09-12T15:06:40.655Z,22.84
2022-09-12T15:09:13.576Z,23.45
2022-09-12T15:11:41.986Z,23.85
2022-09-12T15:14:14.504Z,24.62
2022-09-12T15:16:42.837Z,23.95
2022-09-12T15:19:11.550Z,23.85
2022-09-12T15:21:41.492Z,23.91
2022-09-12T15:24:10.567Z,24.61
2022-09-12T15:26:39.010Z,23.96
2022-09-12T15:29:10.423Z,24.52
2022-09-12T15:31:38.411Z,24.54
2022-09-12T15:34:06.485Z,25.10
2022-09-12T15:36:34.739Z,25.09
2022-09-12T15:39:04.270Z,25.35
2022-09-12T15:41:37.852Z,25.03
2022-09-12T15:44:06.443Z,25.08
2022-09-12T15:46:37.095Z,25.00
2022-09-12T15:49:05.139Z,24.79
2022-09-12T15:51:33.387Z,24.42
2022-09-12T15:54:03.104Z,24.36
2022-09-12T15:56:31.331Z,23.46
2022-09-12T15:59:00.201Z,22.46
2022-09-12T16:01:29.538Z,22.61
2022-09-12T16:03:58.180Z,22.09
2022-09-12T16:06:27.932Z,21.91
2022-09-12T16:08:59.129Z,22.45
2022-09-12T16:11:28.827Z,21.81
2022-09-12T16:13:58.473Z,21.72
2022-09-12T16:16:26.639Z,21.96
2022-09-12T16:18:54.635Z,22.08
2022-09-12T16:21:22.728Z,21.81
2022-09-12T16:23:50.794Z,21.73
2022-09-12T16:26:18.985Z,21.40
2022-09-12T16:28:48.677Z,21.74
2022-09-12T16:31:16.822Z,21.59
2022-09-12T16:33:45.180Z,21.74
2022-09-12T16:36:16.313Z,21.70
2022-09-12T16:38:44.981Z,21.54
2022-09-12T16:41:13.529Z,21.36
2022-09-12T16:43:43.025Z,21.83
2022-09-12T16:46:14.221Z,21.88
2022-09-12T16:48:48.060Z,22.02
2022-09-12T16:51:20.862Z,22.10
2022-09-12T16:53:50.734Z,22.11
2022-09-12T16:56:18.946Z,22.21
2022-09-12T16:58:47.105Z,22.02
2022-09-12T17:01:18.082Z,21.74
2022-09-12T17:03:46.451Z,21.41
2022-09-12T17:06:16.605Z,21.20
2022-09-12T17:08:47.503Z,21.26
2022-09-12T17:11:16.993Z,21.56
2022-09-12T17:14:03.735Z,21.85
2022-09-12T17:16:34.711Z,21.81
2022-09-12T17:19:02.616Z,21.68
2022-09-12T17:21:30.564Z,21.38
2022-09-12T17:23:59.397Z,21.19
2022-09-12T17:26:27.656Z,21.15
2022-09-12T17:28:55.755Z,20.95
2022-09-12T17:31:30.020Z,20.88
2022-09-12T17:34:01.410Z,20.86
2022-09-12T17:36:32.127Z,21.18
2022-09-12T17:39:00.706Z,21.09
2022-09-12T17:41:31.904Z,21.05
2022-09-12T17:44:01.521Z,20.89
2022-09-12T17:46:33.061Z,20.78
2022-09-12T17:49:03.985Z,20.89
2022-09-12T17:51:32.615Z,20.67
2022-09-12T17:54:02.111Z,20.54
2022-09-12T17:56:31.411Z,20.69
2022-09-12T17:59:00.329Z,20.75
2022-09-12T18:01:46.408Z,20.46
2022-09-12T18:04:16.203Z,20.17
2022-09-12T18:06:48.240Z,20.12
2022-09-12T18:09:20.666Z,19.91
2022-09-12T18:11:49.542Z,19.94
2022-09-12T18:14:20.415Z,19.91
2022-09-12T18:16:48.642Z,19.82
2022-09-12T18:19:18.667Z,19.93
2022-09-12T18:21:46.870Z,19.78
2022-09-12T18:24:14.909Z,19.84
2022-09-12T18:26:43.685Z,19.81
2022-09-12T18:29:12.509Z,19.88
2022-09-12T18:31:40.707Z,19.95
2022-09-12T18:34:14.260Z,19.78
2022-09-12T18:36:44.419Z,19.61
2022-09-12T18:39:12.735Z,19.39
2022-09-12T18:41:41.330Z,19.35
2022-09-12T18:44:09.619Z,19.33
2022-09-12T18:46:37.654Z,19.18
2022-09-12T18:49:07.763Z,19.24
2022-09-12T18:51:37.435Z,19.26
2022-09-12T18:54:08.975Z,19.28
2022-09-12T18:56:38.917Z,19.05
2022-09-12T18:59:08.230Z,19.01
2022-09-12T19:01:37.541Z,18.93
2022-09-12T19:04:06.221Z,18.89
2022-09-12T19:06:36.041Z,18.94
2022-09-12T19:09:07.800Z,19.06
2022-09-12T19:11:39.226Z,18.78
2022-09-12T19:14:07.945Z,18.96
2022-09-12T19:16:36.307Z,18.75
2022-09-12T19:19:04.631Z,18.69
2022-09-12T19:21:33.204Z,18.89
2022-09-12T19:24:03.615Z,18.68
2022-09-12T19:26:31.914Z,18.87
2022-09-12T19:29:02.667Z,18.82
2022-09-12T19:31:31.224Z,18.92
2022-09-12T19:34:02.041Z,18.76
2022-09-12T19:36:47.247Z,18.77
2022-09-12T19:39:20.814Z,18.72
2022-09-12T19:41:52.315Z,18.75
2022-09-12T19:44:21.700Z,18.71
2022-09-12T19:46:49.938Z,18.52
2022-09-12T19:49:17.903Z,18.50
2022-09-12T19:51:45.873Z,18.57
2022-09-12T19:54:13.852Z,18.45
2022-09-12T19:56:42.116Z,18.40
2022-09-12T19:59:10.386Z,18.45
2022-09-12T20:01:40.046Z,18.49
2022-09-12T20:04:08.167Z,18.34
2022-09-12T20:06:51.087Z,18.34
2022-09-12T20:09:19.202Z,18.29
2022-09-12T20:11:47.415Z,18.22
2022-09-12T20:14:17.685Z,18.28
2022-09-12T20:16:49.102Z,18.28
2022-09-12T20:19:17.174Z,18.08
2022-09-12T20:21:47.875Z,18.12
2022-09-12T20:24:16.398Z,18.01
2022-09-12T20:26:52.706Z,17.91
2022-09-12T20:29:27.114Z,17.91
2022-09-12T20:31:56.551Z,17.87
2022-09-12T20:34:32.617Z,17.88
2022-09-12T20:37:00.636Z,17.85
2022-09-12T20:39:29.166Z,17.72
2022-09-12T20:41:57.142Z,17.74
2022-09-12T20:44:25.342Z,17.64
2022-09-12T20:46:53.890Z,17.73
2022-09-12T20:49:28.084Z,17.60
2022-09-12T20:51:56.523Z,17.68
2022-09-12T20:54:24.941Z,17.68
2022-09-12T20:56:55.997Z,17.79
2022-09-12T20:59:24.436Z,17.48
2022-09-12T21:01:55.158Z,17.58
2022-09-12T21:04:27.598Z,17.46
2022-09-12T21:06:55.769Z,17.47
2022-09-12T21:09:23.990Z,17.45
2022-09-12T21:11:58.141Z,17.63
2022-09-12T21:14:26.136Z,17.44
2022-09-12T21:16:54.274Z,17.51
2022-09-12T21:19:22.374Z,17.49
2022-09-12T21:21:51.746Z,17.49
2022-09-12T21:24:19.868Z,17.41
2022-09-12T21:26:47.811Z,17.39
2022-09-12T21:29:16.207Z,17.39
2022-09-12T21:31:44.279Z,17.38
2022-09-12T21:34:14.242Z,17.41
2022-09-12T21:36:42.221Z,17.40
2022-09-12T21:39:11.691Z,17.44
2022-09-12T21:41:40.878Z,17.30
2022-09-12T21:44:09.075Z,17.32
2022-09-12T21:46:37.122Z,17.45
2022-09-12T21:49:05.350Z,17.41
2022-09-12T21:51:33.350Z,17.36
2022-09-12T21:54:01.584Z,17.30
2022-09-12T21:56:31.232Z,17.22
2022-09-12T21:58:59.211Z,17.25
2022-09-12T22:01:27.573Z,17.21
2022-09-12T22:03:55.578Z,17.16
2022-09-12T22:06:23.615Z,17.25
2022-09-12T22:08:51.688Z,17.18
2022-09-12T22:11:20.702Z,17.21
2022-09-12T22:13:50.082Z,17.13
2022-09-12T22:16:18.275Z,17.16
2022-09-12T22:18:47.121Z,17.16
2022-09-12T22:21:17.516Z,17.13
2022-09-12T22:24:03.576Z,17.10
2022-09-12T22:26:35.006Z,17.12
2022-09-12T22:29:04.440Z,17.09
2022-09-12T22:31:32.874Z,17.09
2022-09-12T22:34:04.930Z,17.06
2022-09-12T22:36:35.934Z,16.99
2022-09-12T22:39:06.807Z,17.05
2022-09-12T22:41:34.806Z,17.01
2022-09-12T22:44:04.350Z,17.02
2022-09-12T22:46:32.656Z,17.03
2022-09-12T22:49:06.892Z,16.95
2022-09-12T22:51:35.374Z,16.97
2022-09-12T22:54:06.821Z,17.03
2022-09-12T22:56:35.158Z,17.01
2022-09-12T22:59:05.240Z,16.96
2022-09-12T23:01:34.157Z,16.95
2022-09-12T23:04:02.557Z,17.05
2022-09-12T23:06:31.074Z,16.98
2022-09-12T23:08:59.279Z,16.86
2022-09-12T23:11:29.224Z,16.93
2022-09-12T23:13:57.331Z,16.89
2022-09-12T23:16:31.223Z,17.04
2022-09-12T23:18:59.648Z,16.99
2022-09-12T23:21:29.979Z,17.02
2022-09-12T23:23:58.365Z,16.95
2022-09-12T23:26:28.317Z,16.83
2022-09-12T23:28:57.898Z,16.82
2022-09-12T23:31:29.877Z,16.83
2022-09-12T23:33:59.560Z,16.82
2022-09-12T23:36:28.059Z,16.78
2022-09-12T23:38:56.779Z,16.72
2022-09-12T23:41:24.987Z,16.73
2022-09-12T23:43:53.259Z,16.68
2022-09-12T23:46:22.251Z,16.76
2022-09-12T23:48:54.252Z,16.75
2022-09-12T23:51:22.876Z,16.73
2022-09-12T23:53:51.022Z,16.90
2022-09-12T23:56:19.006Z,16.89
2022-09-12T23:58:46.956Z,16.85
